Time;durP1;ratioP1;P1;durP2;ratioP2;P2;SDS_P1;SDS_P2;PMS_P1;PMS_P2;Temp;Humidity;BMP_temperature;BMP_pressure;BME280_temperature;BME280_humidity;BME280_pressure;Samples;Min_cycle;Max_cycle;Signal;HPM_P1;HPM_P2
2022/10/06 00:01:11;;;;;;;1.20;1.10;;;;;;;12.30;100.00;100895.19;5037971;28;20539;-52
2022/10/06 00:03:38;;;;;;;1.57;1.47;;;;;;;12.20;100.00;100895.44;5044829;28;21051;-52
2022/10/06 00:06:06;;;;;;;2.20;1.13;;;;;;;12.15;100.00;100892.91;5038624;28;20467;-52
2022/10/06 00:08:35;;;;;;;1.07;0.97;;;;;;;12.30;100.00;100905.84;5044137;28;20518;-52
2022/10/06 00:11:02;;;;;;;3.07;1.73;;;;;;;12.23;100.00;100900.72;5043594;28;20455;-52
2022/10/06 00:13:29;;;;;;;1.43;1.30;;;;;;;12.14;100.00;100904.50;5035016;28;21282;-52
2022/10/06 00:15:56;;;;;;;0.90;0.87;;;;;;;12.14;100.00;100907.16;5043731;28;20479;-52
2022/10/06 00:18:22;;;;;;;1.63;1.53;;;;;;;12.04;100.00;100921.63;5037117;28;20450;-52
2022/10/06 00:20:57;;;;;;;2.03;1.50;;;;;;;12.16;100.00;100926.66;5037037;28;21090;-52
2022/10/06 00:23:23;;;;;;;8.70;1.33;;;;;;;12.15;100.00;100930.22;5041901;28;20867;-52
2022/10/06 00:25:50;;;;;;;1.53;1.43;;;;;;;12.22;100.00;100934.50;5036883;28;20482;-52
2022/10/06 00:28:16;;;;;;;1.23;0.73;;;;;;;12.28;100.00;100942.34;5041654;28;20491;-52
2022/10/06 00:30:43;;;;;;;1.10;1.00;;;;;;;12.23;100.00;100940.72;5036130;28;20517;-52
2022/10/06 00:33:13;;;;;;;1.47;1.13;;;;;;;12.26;100.00;100956.63;5040325;28;20458;-52
2022/10/06 00:35:42;;;;;;;1.23;1.13;;;;;;;12.30;100.00;100956.50;5036698;28;20460;-52
2022/10/06 00:38:14;;;;;;;7.50;1.37;;;;;;;12.36;100.00;100961.69;5040839;28;20451;-52
2022/10/06 00:40:46;;;;;;;1.80;1.70;;;;;;;12.31;100.00;100960.91;5039403;28;20454;-52
2022/10/06 00:43:42;;;;;;;1.40;1.30;;;;;;;12.39;100.00;100963.41;5038568;28;20509;-52
2022/10/06 00:46:15;;;;;;;4.37;1.90;;;;;;;12.46;100.00;100959.66;5033693;28;20537;-52
2022/10/06 00:48:45;;;;;;;1.23;1.13;;;;;;;12.55;100.00;100967.41;5043400;28;20495;-52
2022/10/06 00:51:13;;;;;;;1.20;1.10;;;;;;;12.51;100.00;100960.44;5040247;28;20799;-52
2022/10/06 00:53:40;;;;;;;3.27;1.87;;;;;;;12.51;100.00;100965.75;5043683;28;20516;-52
2022/10/06 00:56:06;;;;;;;8.27;2.13;;;;;;;12.55;100.00;100955.88;5036071;28;20487;-51
2022/10/06 00:58:33;;;;;;;1.10;1.10;;;;;;;12.68;100.00;100959.97;5042081;28;21023;-52
2022/10/06 01:01:00;;;;;;;1.07;0.97;;;;;;;12.74;100.00;100963.34;5039792;28;20458;-52
2022/10/06 01:03:37;;;;;;;0.90;0.90;;;;;;;12.77;100.00;100967.75;5042823;28;21014;-52
2022/10/06 01:06:04;;;;;;;4.30;1.40;;;;;;;12.83;100.00;100978.25;5038006;28;20475;-52
2022/10/06 01:08:32;;;;;;;1.37;1.23;;;;;;;12.89;100.00;100986.09;5047040;28;20486;-52
2022/10/06 01:10:58;;;;;;;6.50;1.40;;;;;;;12.95;100.00;100985.91;5036646;28;20469;-53
2022/10/06 01:13:26;;;;;;;9.47;1.10;;;;;;;12.99;100.00;100987.59;5042804;28;20460;-52
2022/10/06 01:16:09;;;;;;;5.00;1.70;;;;;;;13.04;100.00;100992.81;5040536;28;20478;-52
2022/10/06 01:18:39;;;;;;;2.97;1.03;;;;;;;13.10;100.00;100997.97;5027321;28;20443;-52
2022/10/06 01:21:13;;;;;;;18.80;2.13;;;;;;;13.18;100.00;101003.09;5036092;28;20483;-52
2022/10/06 01:23:40;;;;;;;1.23;1.13;;;;;;;13.19;100.00;101012.91;5037904;28;20450;-52
2022/10/06 01:26:10;;;;;;;1.90;1.80;;;;;;;13.27;100.00;101014.41;5042595;28;20482;-52
2022/10/06 01:28:38;;;;;;;5.70;1.67;;;;;;;13.38;100.00;101023.94;5040594;28;20498;-53
2022/10/06 01:31:07;;;;;;;2.10;1.43;;;;;;;13.42;100.00;101033.59;5040531;28;20490;-52
2022/10/06 01:33:33;;;;;;;1.37;1.27;;;;;;;13.45;100.00;101026.41;5040795;28;20950;-52
2022/10/06 01:36:00;;;;;;;2.17;1.57;;;;;;;13.46;100.00;101040.63;5031207;28;20534;-53
2022/10/06 01:38:26;;;;;;;1.20;0.80;;;;;;;13.33;100.00;101046.31;5040612;28;20451;-52
2022/10/06 01:40:53;;;;;;;1.57;1.47;;;;;;;13.38;100.00;101064.00;5035809;28;20436;-52
2022/10/06 01:43:20;;;;;;;14.03;1.70;;;;;;;13.40;100.00;101067.50;5037130;28;20908;-52
2022/10/06 01:45:54;;;;;;;2.37;2.10;;;;;;;13.60;100.00;101063.34;5041315;28;20963;-52
2022/10/06 01:48:22;;;;;;;2.37;2.17;;;;;;;13.84;100.00;101067.13;5042539;28;20502;-52
2022/10/06 01:50:49;;;;;;;8.20;2.57;;;;;;;14.09;100.00;101080.59;5034400;28;20818;-52
2022/10/06 01:53:16;;;;;;;6.77;1.70;;;;;;;13.94;100.00;101084.59;5046516;28;20467;-52
2022/10/06 01:55:43;;;;;;;1.47;1.37;;;;;;;13.96;100.00;101087.22;5034878;28;20461;-53
2022/10/06 01:58:10;;;;;;;2.57;2.37;;;;;;;14.04;100.00;101089.69;5042749;28;20417;-52
2022/10/06 02:00:37;;;;;;;1.30;1.20;;;;;;;14.21;100.00;101095.41;5036246;28;20457;-52
2022/10/06 02:03:04;;;;;;;5.70;1.40;;;;;;;14.38;100.00;101084.16;5044494;28;20562;-52
2022/10/06 02:05:31;;;;;;;1.00;0.50;;;;;;;14.50;100.00;101083.81;5034221;28;20509;-52
2022/10/06 02:07:57;;;;;;;1.00;0.43;;;;;;;14.68;100.00;101087.72;5041817;28;20522;-51
2022/10/06 02:10:24;;;;;;;0.50;0.40;;;;;;;14.85;100.00;101082.69;5038918;28;21010;-52
2022/10/06 02:12:51;;;;;;;1.07;1.07;;;;;;;14.99;100.00;101087.56;5039150;28;20868;-51
2022/10/06 02:15:19;;;;;;;1.80;1.00;;;;;;;15.03;100.00;101091.88;5044619;28;20434;-52
2022/10/06 02:17:48;;;;;;;4.00;0.50;;;;;;;15.18;100.00;101083.31;5045987;28;20532;-52
2022/10/06 02:20:15;;;;;;;0.40;0.27;;;;;;;15.17;100.00;101097.63;5041779;28;20450;-52
2022/10/06 02:22:42;;;;;;;0.50;0.40;;;;;;;15.15;100.00;101095.94;5039008;28;20881;-52
2022/10/06 02:25:10;;;;;;;6.73;2.60;;;;;;;15.23;100.00;101102.81;5043197;28;20451;-52
2022/10/06 02:27:38;;;;;;;1.00;0.40;;;;;;;15.13;100.00;101097.81;5045580;28;20805;-52
2022/10/06 02:30:06;;;;;;;0.87;0.87;;;;;;;15.21;100.00;101103.75;5042562;28;20450;-52
2022/10/06 02:32:35;;;;;;;0.57;0.33;;;;;;;15.24;100.00;101101.00;5038764;28;21037;-52
2022/10/06 02:35:02;;;;;;;0.50;0.50;;;;;;;15.29;100.00;101115.09;5041895;28;20521;-52
2022/10/06 02:37:29;;;;;;;0.40;0.20;;;;;;;15.35;100.00;101107.75;5045811;28;20529;-52
2022/10/06 02:39:56;;;;;;;0.63;0.53;;;;;;;15.43;100.00;101122.66;5043142;28;20446;-52
2022/10/06 02:42:22;;;;;;;2.23;0.60;;;;;;;15.44;100.00;101127.06;5038468;28;20489;-52
2022/10/06 02:44:51;;;;;;;0.90;0.40;;;;;;;15.41;100.00;101126.25;5050786;28;20454;-52
2022/10/06 02:47:18;;;;;;;0.80;0.70;;;;;;;15.36;100.00;101127.38;5038515;28;20490;-52
2022/10/06 02:49:45;;;;;;;0.50;0.40;;;;;;;15.53;100.00;101137.47;5040707;28;20942;-52
2022/10/06 02:52:11;;;;;;;4.10;0.30;;;;;;;15.50;100.00;101133.09;5047520;28;20509;-52
2022/10/06 02:54:37;;;;;;;0.37;0.27;;;;;;;15.52;100.00;101143.78;5040448;28;20437;-52
2022/10/06 02:57:04;;;;;;;0.50;0.50;;;;;;;15.50;100.00;101143.84;5045855;28;20922;-52
2022/10/06 02:59:30;;;;;;;3.40;0.97;;;;;;;15.38;100.00;101150.50;5043891;28;20530;-53
2022/10/06 03:01:56;;;;;;;0.53;0.40;;;;;;;15.74;100.00;101150.13;5034211;28;20517;-52
2022/10/06 03:04:23;;;;;;;5.50;0.30;;;;;;;15.52;100.00;101159.84;5034586;28;20465;-54
2022/10/06 03:06:49;;;;;;;0.60;0.30;;;;;;;15.48;100.00;101155.50;5045213;28;20476;-54
2022/10/06 03:09:17;;;;;;;0.50;0.30;;;;;;;15.47;100.00;101170.72;5041987;28;20494;-52
2022/10/06 03:11:44;;;;;;;0.50;0.40;;;;;;;15.35;100.00;101173.81;5035744;28;20463;-52
2022/10/06 03:14:10;;;;;;;1.60;0.40;;;;;;;15.34;100.00;101170.25;5043864;28;20508;-52
2022/10/06 03:16:39;;;;;;;2.00;0.43;;;;;;;15.29;100.00;101179.38;5038382;28;20478;-52
2022/10/06 03:19:06;;;;;;;0.40;0.30;;;;;;;15.29;100.00;101174.91;5039491;28;20516;-52
2022/10/06 03:21:39;;;;;;;0.70;0.40;;;;;;;15.26;100.00;101183.06;5043270;28;21010;-52
2022/10/06 03:24:06;;;;;;;1.40;0.60;;;;;;;15.23;100.00;101196.56;5045233;28;20458;-52
2022/10/06 03:26:35;;;;;;;0.50;0.30;;;;;;;15.21;100.00;101203.72;5038999;28;20897;-52
2022/10/06 03:29:02;;;;;;;0.50;0.30;;;;;;;15.43;100.00;101198.53;5037881;28;20549;-52
2022/10/06 03:31:34;;;;;;;5.50;0.70;;;;;;;15.35;100.00;101201.50;5043664;28;20830;-52
2022/10/06 03:34:01;;;;;;;0.50;0.30;;;;;;;15.28;100.00;101207.09;5044631;28;20450;-54
2022/10/06 03:36:34;;;;;;;4.90;0.50;;;;;;;15.28;100.00;101201.75;5040364;28;20475;-54
2022/10/06 03:39:02;;;;;;;6.00;0.83;;;;;;;15.42;100.00;101212.88;5037801;28;21023;-54
2022/10/06 03:41:31;;;;;;;3.03;0.80;;;;;;;15.43;100.00;101219.97;5041088;28;20452;-53
2022/10/06 03:43:59;;;;;;;5.90;1.43;;;;;;;15.44;100.00;101226.22;5044643;28;20510;-52
2022/10/06 03:46:27;;;;;;;0.30;0.20;;;;;;;15.38;100.00;101233.53;5031225;28;20568;-52
2022/10/06 03:48:56;;;;;;;0.40;0.30;;;;;;;15.45;100.00;101238.69;5044542;28;20563;-52
2022/10/06 03:51:26;;;;;;;0.40;0.30;;;;;;;15.51;100.00;101239.38;5039890;28;20454;-53
2022/10/06 03:53:52;;;;;;;0.60;0.30;;;;;;;15.48;100.00;101243.94;5044820;28;20418;-52
2022/10/06 03:56:23;;;;;;;2.50;0.40;;;;;;;15.45;100.00;101236.88;5042971;28;20568;-52
2022/10/06 03:58:52;;;;;;;3.90;0.50;;;;;;;15.52;100.00;101250.97;5037490;28;20516;-53
2022/10/06 04:01:25;;;;;;;0.40;0.30;;;;;;;15.50;100.00;101258.19;5037484;28;20448;-52
2022/10/06 04:03:56;;;;;;;1.00;0.50;;;;;;;15.55;100.00;101254.41;5026843;28;21014;-52
2022/10/06 04:06:24;;;;;;;2.00;0.73;;;;;;;15.54;100.00;101258.03;5037172;28;21133;-52
2022/10/06 04:08:52;;;;;;;0.50;0.30;;;;;;;15.53;100.00;101261.63;5042283;28;20495;-53
2022/10/06 04:11:25;;;;;;;2.63;0.60;;;;;;;15.54;100.00;101270.53;5043717;28;20482;-52
2022/10/06 04:13:58;;;;;;;8.43;1.00;;;;;;;15.49;100.00;101270.72;5040174;28;20476;-52
2022/10/06 04:16:27;;;;;;;0.50;0.40;;;;;;;15.50;100.00;101279.63;5037602;28;20471;-53
2022/10/06 04:18:57;;;;;;;0.70;0.30;;;;;;;15.55;100.00;101283.00;5039418;28;20452;-53
2022/10/06 04:21:24;;;;;;;0.40;0.20;;;;;;;15.57;100.00;101278.47;5033613;28;20486;-52
2022/10/06 04:23:52;;;;;;;0.70;0.30;;;;;;;15.44;100.00;101291.41;5042565;28;20473;-52
2022/10/06 04:26:21;;;;;;;3.13;0.80;;;;;;;15.46;100.00;101286.84;5036526;28;20491;-52
2022/10/06 04:28:48;;;;;;;0.40;0.30;;;;;;;15.48;100.00;101293.03;5037293;28;20499;-53
2022/10/06 04:31:27;;;;;;;2.30;0.60;;;;;;;15.49;100.00;101302.88;5033539;28;20521;-52
2022/10/06 04:33:56;;;;;;;0.47;0.40;;;;;;;15.42;100.00;101298.63;5043270;28;20446;-52
2022/10/06 04:36:33;;;;;;;0.40;0.33;;;;;;;15.50;100.00;101303.75;5038766;28;20481;-52
2022/10/06 04:39:02;;;;;;;2.50;2.40;;;;;;;15.39;100.00;101304.06;5036610;28;20451;-52
2022/10/06 04:41:40;;;;;;;0.50;0.50;;;;;;;15.35;100.00;101308.66;5039748;28;21022;-52
2022/10/06 04:44:07;;;;;;;2.73;1.03;;;;;;;15.35;100.00;101308.66;5043218;28;20478;-52
2022/10/06 04:46:34;;;;;;;0.50;0.30;;;;;;;15.28;100.00;101319.63;5029931;28;20894;-52
2022/10/06 04:49:09;;;;;;;1.07;0.63;;;;;;;15.24;100.00;101310.81;5023239;28;20517;-52
2022/10/06 04:51:44;;;;;;;0.40;0.40;;;;;;;15.34;100.00;101314.03;5036206;28;20459;-52
2022/10/06 04:54:10;;;;;;;0.83;0.73;;;;;;;15.38;100.00;101324.63;5041805;28;20462;-53
2022/10/06 04:56:37;;;;;;;1.53;0.40;;;;;;;15.40;100.00;101325.47;5042899;28;20553;-52
2022/10/06 04:59:03;;;;;;;0.33;0.27;;;;;;;15.35;100.00;101324.75;5038316;28;20940;-52
2022/10/06 05:01:35;;;;;;;0.67;0.30;;;;;;;15.23;100.00;101332.28;5036277;28;20808;-52
2022/10/06 05:04:03;;;;;;;0.90;0.50;;;;;;;15.21;100.00;101326.94;5040509;28;20455;-52
2022/10/06 05:06:33;;;;;;;7.00;1.13;;;;;;;15.07;100.00;101338.09;5042672;28;20479;-52
2022/10/06 05:09:03;;;;;;;7.80;1.27;;;;;;;15.11;100.00;101349.59;5039732;28;20498;-52
2022/10/06 05:11:30;;;;;;;0.40;0.30;;;;;;;15.17;100.00;101346.72;5036184;28;20459;-52
2022/10/06 05:13:57;;;;;;;10.93;1.07;;;;;;;15.05;100.00;101361.34;5038609;28;20451;-52
2022/10/06 05:16:26;;;;;;;0.70;0.63;;;;;;;15.00;100.00;101359.75;5041072;28;20836;-52
2022/10/06 05:18:52;;;;;;;0.80;0.60;;;;;;;14.91;100.00;101366.25;5040775;28;20447;-52
2022/10/06 05:21:22;;;;;;;4.23;0.40;;;;;;;14.94;100.00;101368.84;5044310;28;20468;-52
2022/10/06 05:23:49;;;;;;;4.13;0.50;;;;;;;14.89;100.00;101378.81;5041022;28;20500;-52
2022/10/06 05:26:18;;;;;;;0.40;0.30;;;;;;;14.79;100.00;101377.31;5035686;28;20478;-52
2022/10/06 05:28:45;;;;;;;0.50;0.50;;;;;;;14.81;100.00;101376.38;5036702;28;20487;-52
2022/10/06 05:31:13;;;;;;;2.20;0.40;;;;;;;14.71;100.00;101382.88;5042421;28;20455;-52
2022/10/06 05:33:40;;;;;;;2.40;0.50;;;;;;;14.76;100.00;101388.09;5034910;28;20947;-52
2022/10/06 05:36:12;;;;;;;5.47;0.67;;;;;;;14.71;100.00;101395.41;5041884;28;20582;-52
2022/10/06 05:38:39;;;;;;;2.20;0.93;;;;;;;14.67;100.00;101399.09;5042103;28;20447;-52
2022/10/06 05:41:11;;;;;;;3.03;0.90;;;;;;;14.56;100.00;101402.06;5028798;28;20497;-52
2022/10/06 05:43:39;;;;;;;1.03;0.60;;;;;;;14.56;100.00;101410.06;5030402;28;20521;-52
2022/10/06 05:46:09;;;;;;;0.53;0.50;;;;;;;14.54;100.00;101419.06;5048329;28;20441;-52
2022/10/06 05:48:35;;;;;;;7.50;1.20;;;;;;;14.48;100.00;101415.63;5046322;28;20494;-52
2022/10/06 05:51:05;;;;;;;18.53;1.10;;;;;;;14.88;100.00;101432.38;5037686;28;20429;-52
2022/10/06 05:53:34;;;;;;;0.50;0.50;;;;;;;14.84;100.00;101436.09;5035334;28;20887;-52
2022/10/06 05:56:03;;;;;;;0.93;0.67;;;;;;;14.50;100.00;101437.84;5038898;28;20487;-54
2022/10/06 05:58:30;;;;;;;7.50;0.70;;;;;;;14.38;100.00;101439.94;5042080;28;20903;-54
2022/10/06 06:01:14;;;;;;;12.73;0.60;;;;;;;14.20;100.00;101438.63;5038545;28;20429;-54
2022/10/06 06:03:45;;;;;;;5.30;0.50;;;;;;;14.36;100.00;101453.34;5039671;28;20433;-54
2022/10/06 06:06:20;;;;;;;3.47;0.90;;;;;;;14.39;100.00;101455.06;5032712;28;20803;-54
2022/10/06 06:08:52;;;;;;;1.10;0.73;;;;;;;14.28;100.00;101467.84;5040191;28;20536;-53
2022/10/06 06:11:24;;;;;;;0.50;0.30;;;;;;;14.09;100.00;101470.09;5034902;28;20960;-52
2022/10/06 06:14:03;;;;;;;0.40;0.30;;;;;;;14.17;100.00;101468.13;5032099;28;20434;-53
2022/10/06 06:16:30;;;;;;;4.77;0.90;;;;;;;14.14;100.00;101477.09;5041763;28;20453;-52
2022/10/06 06:18:58;;;;;;;0.50;0.30;;;;;;;14.12;100.00;101480.72;5039985;28;20451;-52
2022/10/06 06:21:25;;;;;;;0.77;0.50;;;;;;;14.08;100.00;101487.91;5035073;28;20454;-52
2022/10/06 06:23:52;;;;;;;1.90;1.80;;;;;;;14.20;100.00;101494.78;5036080;28;20430;-52
2022/10/06 06:26:23;;;;;;;14.47;0.70;;;;;;;13.99;100.00;101495.31;5041375;28;20475;-52
2022/10/06 06:28:51;;;;;;;12.30;0.50;;;;;;;14.09;100.00;101508.38;5040640;28;20498;-51
2022/10/06 06:31:21;;;;;;;0.60;0.37;;;;;;;14.13;100.00;101511.91;5031251;28;20455;-52
2022/10/06 06:33:53;;;;;;;1.43;0.40;;;;;;;14.17;100.00;101518.91;5036482;28;21090;-52
2022/10/06 06:36:25;;;;;;;1.27;0.30;;;;;;;14.12;99.60;101527.06;5040385;28;20479;-52
2022/10/06 06:38:53;;;;;;;3.53;0.80;;;;;;;14.17;99.30;101532.28;5037005;28;20475;-51
2022/10/06 06:41:27;;;;;;;1.10;0.97;;;;;;;14.28;98.57;101542.75;5039169;28;20459;-51
2022/10/06 06:43:54;;;;;;;1.67;0.60;;;;;;;14.27;98.41;101541.00;5041096;28;20509;-52
2022/10/06 06:46:26;;;;;;;7.10;1.07;;;;;;;14.37;98.42;101547.84;5027530;28;20479;-52
2022/10/06 06:48:54;;;;;;;3.17;0.40;;;;;;;14.37;97.87;101551.41;5041291;28;20597;-52
2022/10/06 06:51:22;;;;;;;1.50;0.30;;;;;;;14.44;97.75;101562.91;5033437;28;20460;-52
2022/10/06 06:53:50;;;;;;;1.47;0.57;;;;;;;14.45;96.67;101560.19;5042012;28;20469;-51
2022/10/06 06:56:17;;;;;;;0.80;0.53;;;;;;;14.61;95.83;101566.03;5048104;28;20486;-52
2022/10/06 06:58:47;;;;;;;0.63;0.60;;;;;;;14.79;93.32;101567.34;5034705;28;21164;-52
2022/10/06 07:01:16;;;;;;;2.20;1.27;;;;;;;14.66;92.74;101568.59;5039467;28;20956;-52
2022/10/06 07:03:51;;;;;;;1.60;1.00;;;;;;;14.85;90.77;101577.94;5034493;28;20817;-52
2022/10/06 07:06:27;;;;;;;2.20;0.50;;;;;;;14.81;90.38;101585.16;5033440;28;20570;-52
2022/10/06 07:08:58;;;;;;;15.73;2.23;;;;;;;14.85;90.47;101588.63;5034190;28;20491;-52
2022/10/06 07:11:33;;;;;;;26.90;0.93;;;;;;;15.06;89.74;101593.41;5045250;28;20942;-53
2022/10/06 07:14:03;;;;;;;3.10;0.70;;;;;;;15.40;88.81;101584.50;5030561;28;20429;-52
2022/10/06 07:25:32;;;;;;;1.57;0.57;;;;;;;15.34;88.52;101612.31;4969401;28;20440;-52
2022/10/06 07:27:58;;;;;;;10.97;1.20;;;;;;;15.45;89.33;101609.34;5016668;28;21147;-52
2022/10/06 07:30:26;;;;;;;1.07;0.50;;;;;;;15.57;88.71;101614.38;5043293;28;21019;-52
2022/10/06 07:32:54;;;;;;;3.50;0.70;;;;;;;15.68;87.51;101614.13;5037905;28;20459;-53
2022/10/06 07:35:21;;;;;;;2.10;0.70;;;;;;;15.50;87.03;101611.94;5025169;28;20489;-52
2022/10/06 07:37:49;;;;;;;1.23;0.97;;;;;;;15.67;86.72;101615.03;5036528;28;20586;-53
2022/10/06 07:40:16;;;;;;;3.53;1.13;;;;;;;15.68;86.27;101616.78;5037991;28;20443;-53
2022/10/06 07:42:50;;;;;;;7.73;1.67;;;;;;;15.72;84.46;101621.13;5037813;28;20965;-52
2022/10/06 07:45:39;;;;;;;5.23;1.30;;;;;;;16.02;83.30;101627.41;5025284;28;20443;-53
2022/10/06 07:48:16;;;;;;;15.47;1.67;;;;;;;15.89;83.05;101626.88;5042547;28;20451;-52
2022/10/06 07:50:46;;;;;;;3.60;1.93;;;;;;;16.01;83.40;101641.75;5038071;28;20446;-55
2022/10/06 07:53:14;;;;;;;0.67;0.50;;;;;;;15.96;82.49;101639.22;5048239;28;20458;-54
2022/10/06 07:55:44;;;;;;;0.50;0.43;;;;;;;16.09;82.04;101644.22;5038398;28;20455;-53
2022/10/06 07:58:19;;;;;;;0.83;0.83;;;;;;;15.99;83.19;101644.47;5035314;28;20486;-53
2022/10/06 08:00:51;;;;;;;0.70;0.60;;;;;;;15.77;84.12;101650.53;5039975;28;20425;-52
2022/10/06 08:03:18;;;;;;;1.67;0.90;;;;;;;15.98;83.89;101647.22;5043952;28;20448;-53
2022/10/06 08:05:55;;;;;;;2.80;0.90;;;;;;;15.88;83.69;101646.59;5041349;28;20455;-53
2022/10/06 08:08:22;;;;;;;0.83;0.50;;;;;;;16.01;84.10;101657.84;5036352;28;20836;-54
2022/10/06 08:10:53;;;;;;;1.23;0.50;;;;;;;16.27;82.97;101659.75;5025624;28;20460;-53
2022/10/06 08:13:19;;;;;;;1.20;0.80;;;;;;;16.30;82.54;101656.97;5043370;28;20514;-53
2022/10/06 08:15:48;;;;;;;4.37;1.43;;;;;;;16.23;82.47;101656.28;5043326;28;20951;-53
2022/10/06 08:18:16;;;;;;;3.30;1.90;;;;;;;16.19;82.74;101661.81;5024226;28;20425;-54
2022/10/06 08:21:24;;;;;;;3.50;0.63;;;;;;;16.59;82.48;101669.53;5036576;28;21146;-53
2022/10/06 08:23:52;;;;;;;0.60;0.40;;;;;;;16.57;81.37;101669.53;5037395;28;20444;-54
2022/10/06 08:26:20;;;;;;;4.73;0.93;;;;;;;16.54;83.07;101676.81;5043423;28;20472;-54
2022/10/06 08:28:49;;;;;;;1.90;0.53;;;;;;;16.81;80.69;101677.78;5043480;28;20490;-54
2022/10/06 08:31:20;;;;;;;5.30;0.30;;;;;;;16.71;80.98;101682.56;5039431;28;20929;-53
2022/10/06 08:33:47;;;;;;;2.00;0.53;;;;;;;16.64;80.80;101689.03;5043409;28;20458;-56
2022/10/06 08:36:17;;;;;;;1.13;0.53;;;;;;;16.80;80.48;101693.03;5038216;28;20532;-56
2022/10/06 08:38:46;;;;;;;3.30;1.00;;;;;;;16.78;80.15;101692.19;5036998;28;20452;-56
2022/10/06 08:41:19;;;;;;;3.43;0.60;;;;;;;16.98;79.85;101690.66;5041161;28;20482;-55
2022/10/06 08:43:52;;;;;;;0.50;0.50;;;;;;;17.04;79.20;101685.13;5043232;28;20511;-55
2022/10/06 08:46:21;;;;;;;4.30;0.93;;;;;;;17.54;77.26;101694.13;5030500;28;20515;-55
2022/10/06 08:48:50;;;;;;;2.83;1.40;;;;;;;17.59;76.87;101697.56;5043070;28;20529;-55
2022/10/06 08:51:30;;;;;;;1.40;0.77;;;;;;;17.33;76.32;101695.75;5040924;28;20425;-55
2022/10/06 08:54:14;;;;;;;1.63;1.53;;;;;;;17.57;73.67;101701.25;5042796;28;20422;-55
2022/10/06 08:56:53;;;;;;;1.53;1.00;;;;;;;17.46;75.73;101702.47;5043631;28;20884;-55
2022/10/06 08:59:20;;;;;;;4.37;1.03;;;;;;;17.53;75.18;101699.56;5040642;28;20512;-52
2022/10/06 09:01:50;;;;;;;1.30;0.70;;;;;;;17.50;75.24;101699.69;5035041;28;20549;-55
2022/10/06 09:04:31;;;;;;;2.67;0.77;;;;;;;17.55;75.40;101701.28;5038300;28;20452;-51
2022/10/06 09:07:15;;;;;;;5.60;0.50;;;;;;;17.38;75.79;101701.84;5023477;28;20445;-51
2022/10/06 09:10:03;;;;;;;9.23;0.97;;;;;;;17.31;77.04;101707.50;5035065;28;20531;-52
2022/10/06 09:12:48;;;;;;;1.17;0.90;;;;;;;17.57;78.33;101704.81;5036988;28;20451;-51
2022/10/06 09:15:36;;;;;;;3.07;0.50;;;;;;;17.68;77.66;101708.03;5026251;28;20451;-54
2022/10/06 09:18:16;;;;;;;13.77;1.00;;;;;;;17.92;75.71;101714.31;5035545;28;20533;-55
2022/10/06 09:21:10;;;;;;;2.97;1.20;;;;;;;17.91;75.02;101720.63;5034818;28;20448;-55
2022/10/06 09:23:48;;;;;;;3.80;2.10;;;;;;;18.14;74.45;101710.88;5032022;28;20463;-55
2022/10/06 09:26:27;;;;;;;5.10;1.13;;;;;;;17.80;75.26;101714.75;5042520;28;20471;-54
2022/10/06 09:28:55;;;;;;;1.53;0.50;;;;;;;18.29;74.34;101718.38;5042150;28;20513;-55
2022/10/06 09:31:23;;;;;;;0.70;0.70;;;;;;;18.19;73.51;101719.63;5032549;28;20522;-54
2022/10/06 09:33:53;;;;;;;5.67;1.23;;;;;;;18.22;73.53;101716.81;5042219;28;20447;-54
2022/10/06 09:36:20;;;;;;;1.03;0.40;;;;;;;18.50;73.16;101713.97;5037082;28;20437;-55
2022/10/06 09:38:55;;;;;;;4.70;1.60;;;;;;;18.29;72.79;101715.66;5034890;28;20462;-54
2022/10/06 09:41:27;;;;;;;2.60;0.80;;;;;;;18.05;73.64;101718.31;5041357;28;20425;-54
2022/10/06 09:44:24;;;;;;;2.63;0.73;;;;;;;18.26;74.26;101726.56;5045131;28;20948;-55
2022/10/06 09:46:51;;;;;;;0.50;0.40;;;;;;;18.19;72.03;101725.91;5027943;28;20483;-55
2022/10/06 09:49:22;;;;;;;0.90;0.67;;;;;;;18.45;73.67;101733.00;5038273;28;20494;-55
2022/10/06 09:51:58;;;;;;;2.90;0.80;;;;;;;18.43;72.81;101724.09;5037841;28;20459;-54
2022/10/06 09:54:24;;;;;;;2.10;2.00;;;;;;;18.73;72.12;101726.56;5040833;28;20942;-54
2022/10/06 09:56:52;;;;;;;4.33;0.90;;;;;;;18.97;71.08;101727.41;5042080;28;20479;-54
2022/10/06 09:59:22;;;;;;;3.53;1.53;;;;;;;18.49;71.26;101725.66;5041050;28;20457;-55
2022/10/06 10:01:54;;;;;;;1.73;0.70;;;;;;;18.24;72.66;101726.63;5036666;28;20842;-54
2022/10/06 10:04:31;;;;;;;0.77;0.40;;;;;;;18.89;72.64;101723.19;5038237;28;20474;-54
2022/10/06 10:07:24;;;;;;;9.83;0.57;;;;;;;18.89;71.58;101725.03;5022828;28;20449;-54
2022/10/06 10:10:19;;;;;;;1.03;0.93;;;;;;;18.76;71.87;101723.75;5033787;28;21007;-54
2022/10/06 10:12:56;;;;;;;3.27;0.50;;;;;;;18.82;67.45;101721.72;5035319;28;20451;-55
2022/10/06 10:15:30;;;;;;;12.20;0.80;;;;;;;19.05;65.76;101722.56;5039262;28;20509;-55
2022/10/06 10:17:59;;;;;;;2.17;1.97;;;;;;;18.84;63.47;101725.22;5041927;28;20423;-54
2022/10/06 10:20:35;;;;;;;3.43;1.33;;;;;;;18.49;64.83;101723.84;5039597;28;20429;-54
2022/10/06 10:23:19;;;;;;;4.43;1.03;;;;;;;19.04;64.24;101716.31;5033456;28;20497;-55
2022/10/06 10:26:13;;;;;;;14.93;0.40;;;;;;;18.56;63.51;101720.00;5034556;28;20456;-54
2022/10/06 10:29:18;;;;;;;0.73;0.40;;;;;;;18.76;64.25;101721.94;5036378;28;20447;-55
2022/10/06 10:32:11;;;;;;;0.93;0.60;;;;;;;18.84;64.53;101718.94;5023219;28;20513;-55
2022/10/06 10:34:57;;;;;;;4.80;0.80;;;;;;;18.98;65.32;101726.47;5026945;28;20446;-55
2022/10/06 10:37:45;;;;;;;10.83;2.20;;;;;;;19.20;65.37;101720.16;5036014;28;20472;-55
2022/10/06 10:40:30;;;;;;;1.80;1.10;;;;;;;19.26;63.72;101724.41;5031693;28;20422;-55
2022/10/06 10:43:06;;;;;;;3.33;0.63;;;;;;;19.43;64.79;101729.09;5028414;28;20438;-55
2022/10/06 10:45:36;;;;;;;4.47;0.90;;;;;;;19.17;62.24;101722.94;5039071;28;20457;-55
2022/10/06 10:48:15;;;;;;;1.17;1.03;;;;;;;19.36;64.92;101725.78;5041472;28;20820;-54
2022/10/06 10:50:41;;;;;;;5.00;1.00;;;;;;;19.28;63.80;101732.44;5045909;28;20580;-55
2022/10/06 10:53:32;;;;;;;2.80;0.50;;;;;;;19.29;62.78;101721.56;5044908;28;20433;-55
2022/10/06 10:56:05;;;;;;;1.40;1.30;;;;;;;19.19;63.75;101723.78;4993046;28;20492;-55
2022/10/06 10:58:37;;;;;;;0.53;0.40;;;;;;;19.39;63.33;101728.34;5045552;28;20449;-55
2022/10/06 11:01:13;;;;;;;3.90;0.63;;;;;;;19.31;63.50;101722.38;5043281;28;20437;-55
2022/10/06 11:03:39;;;;;;;12.93;1.10;;;;;;;19.41;63.75;101722.88;5037671;28;20951;-54
2022/10/06 11:06:33;;;;;;;1.70;0.60;;;;;;;19.29;64.87;101726.09;5051603;28;20474;-55
2022/10/06 11:09:14;;;;;;;0.87;0.37;;;;;;;18.98;64.74;101726.47;5032571;28;20458;-55
2022/10/06 11:11:46;;;;;;;0.63;0.60;;;;;;;19.03;65.38;101713.69;5034402;28;20960;-54
2022/10/06 11:14:42;;;;;;;7.63;1.07;;;;;;;19.12;63.70;101718.72;5031942;28;20961;-55
2022/10/06 11:17:27;;;;;;;28.83;1.23;;;;;;;18.84;63.65;101724.34;5032238;28;20511;-54
2022/10/06 11:20:07;;;;;;;0.50;0.50;;;;;;;19.00;63.68;101721.91;5033014;28;20483;-54
2022/10/06 11:22:53;;;;;;;1.67;0.40;;;;;;;19.12;63.10;101718.72;5042566;28;20455;-55
2022/10/06 11:25:31;;;;;;;1.50;0.50;;;;;;;19.11;63.09;101716.94;5040823;28;20455;-54
2022/10/06 11:28:08;;;;;;;3.30;0.40;;;;;;;19.41;62.88;101718.34;5044890;28;20935;-54
2022/10/06 11:30:49;;;;;;;9.00;1.03;;;;;;;19.27;61.82;101719.88;5036132;28;20483;-54
2022/10/06 11:33:30;;;;;;;0.50;0.40;;;;;;;19.37;61.32;101718.56;5040762;28;20471;-54
2022/10/06 11:35:57;;;;;;;6.90;0.67;;;;;;;19.38;62.35;101713.09;5042705;28;20469;-54
2022/10/06 11:38:32;;;;;;;3.17;0.50;;;;;;;19.68;60.75;101707.38;5040297;28;20530;-54
2022/10/06 11:41:12;;;;;;;1.17;0.63;;;;;;;19.39;58.83;101703.19;5031963;28;20807;-54
2022/10/06 11:43:59;;;;;;;3.13;1.80;;;;;;;19.49;61.74;101710.84;5038960;28;20467;-55
2022/10/06 11:46:39;;;;;;;0.60;0.60;;;;;;;19.65;61.12;101697.59;5039082;28;20829;-54
2022/10/06 11:49:28;;;;;;;5.20;0.80;;;;;;;19.89;60.81;101686.66;5032620;28;20437;-54